createdAt,value
2023-04-26T00:02:25.133Z,8.57
2023-04-26T00:04:58.918Z,8.60
2023-04-26T00:07:26.785Z,9.55
2023-04-26T00:09:55.718Z,8.02
2023-04-26T00:12:23.801Z,9.85
2023-04-26T00:14:51.284Z,8.13
2023-04-26T00:17:19.041Z,8.40
2023-04-26T00:19:47.184Z,9.05
2023-04-26T00:22:15.430Z,8.07
2023-04-26T00:24:43.463Z,8.45
2023-04-26T00:27:11.134Z,8.33
2023-04-26T00:29:39.448Z,8.38
2023-04-26T00:32:07.596Z,8.27
2023-04-26T00:34:36.584Z,7.72
2023-04-26T00:37:05.278Z,8.57
2023-04-26T00:39:33.164Z,7.50
2023-04-26T00:42:01.814Z,10.80
2023-04-26T00:44:29.340Z,8.07
2023-04-26T00:46:57.553Z,8.10
2023-04-26T00:49:28.214Z,10.10
2023-04-26T00:51:56.227Z,8.37
2023-04-26T00:54:24.490Z,9.63
2023-04-26T00:56:53.227Z,8.48
2023-04-26T00:59:21.489Z,7.93
2023-04-26T01:01:49.616Z,7.93
2023-04-26T01:04:18.066Z,8.50
2023-04-26T01:06:46.104Z,7.93
2023-04-26T01:09:15.660Z,7.25
2023-04-26T01:11:44.366Z,9.57
2023-04-26T01:14:12.310Z,8.00
2023-04-26T01:16:40.996Z,9.50
2023-04-26T01:19:13.007Z,8.18
2023-04-26T01:21:41.685Z,8.60
2023-04-26T01:24:13.530Z,8.25
2023-04-26T01:26:46.499Z,9.95
2023-04-26T01:29:21.922Z,7.70
2023-04-26T01:31:50.429Z,7.50
2023-04-26T01:34:17.885Z,9.10
2023-04-26T01:36:46.750Z,8.77
2023-04-26T01:39:14.520Z,9.02
2023-04-26T01:41:43.318Z,9.60
2023-04-26T01:44:10.734Z,10.27
2023-04-26T01:46:38.655Z,8.05
2023-04-26T01:49:06.296Z,8.75
2023-04-26T01:51:34.422Z,8.32
2023-04-26T01:54:02.807Z,8.03
2023-04-26T01:56:32.570Z,7.25
2023-04-26T01:59:01.542Z,7.93
2023-04-26T02:01:31.519Z,9.35
2023-04-26T02:03:59.406Z,8.45
2023-04-26T02:06:27.086Z,7.53
2023-04-26T02:08:54.735Z,7.87
2023-04-26T02:11:23.161Z,7.32
2023-04-26T02:13:53.354Z,8.15
2023-04-26T02:16:21.811Z,9.57
2023-04-26T02:18:50.049Z,9.47
2023-04-26T02:21:21.564Z,8.68
2023-04-26T02:23:49.380Z,8.00
2023-04-26T02:26:16.926Z,8.27
2023-04-26T02:28:44.929Z,7.85
2023-04-26T02:31:14.271Z,8.50
2023-04-26T02:33:41.835Z,7.53
2023-04-26T02:36:10.459Z,8.50
2023-04-26T02:38:38.065Z,9.73
2023-04-26T02:41:05.986Z,7.50
2023-04-26T02:43:33.958Z,8.40
2023-04-26T02:46:01.706Z,9.77
2023-04-26T02:48:29.908Z,9.50
2023-04-26T02:50:57.817Z,8.73
2023-04-26T02:53:25.774Z,9.40
2023-04-26T02:55:53.258Z,7.43
2023-04-26T02:58:21.369Z,8.35
2023-04-26T03:00:49.016Z,11.18
2023-04-26T03:03:16.981Z,9.18
2023-04-26T03:05:46.317Z,8.75
2023-04-26T03:08:14.424Z,10.67
2023-04-26T03:10:42.159Z,9.40
2023-04-26T03:13:09.995Z,9.13
2023-04-26T03:15:37.574Z,11.05
2023-04-26T03:18:05.316Z,9.52
2023-04-26T03:20:33.312Z,11.17
2023-04-26T03:23:01.058Z,10.18
2023-04-26T03:25:28.626Z,12.52
2023-04-26T03:27:56.756Z,11.85
2023-04-26T03:30:24.416Z,10.73
2023-04-26T03:32:53.312Z,12.13
2023-04-26T03:35:21.316Z,12.43
2023-04-26T03:37:50.339Z,12.32
2023-04-26T03:40:19.154Z,11.35
2023-04-26T03:42:47.173Z,13.85
2023-04-26T03:45:16.520Z,11.23
2023-04-26T03:47:44.105Z,9.20
2023-04-26T03:50:12.286Z,11.05
2023-04-26T03:52:39.836Z,10.35
2023-04-26T03:55:10.160Z,9.93
2023-04-26T03:57:38.329Z,8.60
2023-04-26T04:00:14.206Z,10.98
2023-04-26T04:02:42.997Z,9.48
2023-04-26T04:05:12.897Z,9.68
2023-04-26T04:07:41.157Z,11.68
2023-04-26T04:10:10.707Z,9.70
2023-04-26T04:12:41.922Z,9.73
2023-04-26T04:15:10.274Z,10.50
2023-04-26T04:17:39.039Z,12.15
2023-04-26T04:20:08.114Z,10.82
2023-04-26T04:22:36.176Z,9.13
2023-04-26T04:25:10.262Z,11.05
2023-04-26T04:27:38.128Z,15.18
2023-04-26T04:30:07.819Z,11.40
2023-04-26T04:32:36.977Z,12.93
2023-04-26T04:35:05.703Z,10.07
2023-04-26T04:37:33.724Z,11.93
2023-04-26T04:40:01.799Z,10.63
2023-04-26T04:42:32.426Z,12.07
2023-04-26T04:45:00.963Z,11.25
2023-04-26T04:47:28.701Z,11.70
2023-04-26T04:49:57.524Z,10.57
2023-04-26T04:52:25.869Z,12.45
2023-04-26T04:54:53.829Z,9.18
2023-04-26T04:57:21.493Z,11.20
2023-04-26T04:59:49.398Z,11.20
2023-04-26T05:02:17.074Z,11.73
2023-04-26T05:04:45.047Z,11.90
2023-04-26T05:07:15.565Z,11.70
2023-04-26T05:09:43.424Z,10.35
2023-04-26T05:12:11.687Z,11.53
2023-04-26T05:14:40.862Z,12.35
2023-04-26T05:17:08.428Z,9.90
2023-04-26T05:19:37.062Z,12.37
2023-04-26T05:22:05.108Z,8.40
2023-04-26T05:24:32.884Z,12.37
2023-04-26T05:27:00.945Z,8.93
2023-04-26T05:29:32.010Z,10.18
2023-04-26T05:31:59.742Z,12.93
2023-04-26T05:34:29.140Z,13.68
2023-04-26T05:36:57.037Z,9.67
2023-04-26T05:39:24.587Z,9.88
2023-04-26T05:41:52.572Z,14.52
2023-04-26T05:44:20.325Z,10.35
2023-04-26T05:46:47.972Z,8.75
2023-04-26T05:49:16.294Z,9.83
2023-04-26T05:51:43.783Z,15.82
2023-04-26T05:54:11.830Z,12.65
2023-04-26T05:56:40.349Z,11.32
2023-04-26T05:59:08.741Z,11.27
2023-04-26T06:01:36.504Z,11.00
2023-04-26T06:04:04.689Z,12.00
2023-04-26T06:06:33.209Z,11.73
2023-04-26T06:09:00.867Z,13.82
2023-04-26T06:11:29.866Z,7.75
2023-04-26T06:13:57.836Z,12.17
2023-04-26T06:16:25.724Z,11.48
2023-04-26T06:18:53.587Z,8.25
2023-04-26T06:21:21.273Z,8.90
2023-04-26T06:23:48.914Z,9.70
2023-04-26T06:26:17.669Z,9.30
2023-04-26T06:28:45.308Z,10.13
2023-04-26T06:31:14.799Z,11.65
2023-04-26T06:33:42.704Z,13.20
2023-04-26T06:36:13.456Z,9.73
2023-04-26T06:38:42.031Z,11.53
2023-04-26T06:41:09.569Z,8.18
2023-04-26T06:43:37.379Z,10.25
2023-04-26T06:46:05.941Z,9.18
2023-04-26T06:48:33.541Z,13.80
2023-04-26T06:51:08.537Z,8.53
2023-04-26T06:53:36.950Z,8.15
2023-04-26T06:56:04.826Z,13.70
2023-04-26T06:58:32.348Z,11.95
2023-04-26T07:01:00.139Z,11.45
2023-04-26T07:03:27.994Z,12.03
2023-04-26T07:05:56.593Z,8.00
2023-04-26T07:08:24.398Z,9.75
2023-04-26T07:10:52.149Z,9.98
2023-04-26T07:13:19.660Z,10.70
2023-04-26T07:15:47.782Z,13.83
2023-04-26T07:18:15.557Z,9.60
2023-04-26T07:20:43.151Z,21.60
2023-04-26T07:23:14.085Z,8.40
2023-04-26T07:25:41.587Z,11.05
2023-04-26T07:28:09.411Z,8.47
2023-04-26T07:30:37.268Z,11.43
2023-04-26T07:33:04.879Z,10.60
2023-04-26T07:35:35.291Z,6.85
2023-04-26T07:38:03.308Z,13.82
2023-04-26T07:40:31.374Z,16.73
2023-04-26T07:42:59.082Z,6.15
2023-04-26T07:45:27.096Z,10.20
2023-04-26T07:47:54.650Z,6.85
2023-04-26T07:50:22.261Z,7.93
2023-04-26T07:52:50.057Z,11.13
2023-04-26T07:55:17.925Z,8.82
2023-04-26T07:57:45.482Z,10.82
2023-04-26T08:00:14.047Z,10.52
2023-04-26T08:02:44.647Z,12.60
2023-04-26T08:05:14.230Z,10.80
2023-04-26T08:07:43.324Z,12.68
2023-04-26T08:10:11.337Z,7.80
2023-04-26T08:12:39.243Z,9.43
2023-04-26T08:15:08.218Z,12.90
2023-04-26T08:17:35.907Z,7.07
2023-04-26T08:20:09.575Z,10.75
2023-04-26T08:22:38.068Z,8.68
2023-04-26T08:25:06.510Z,6.30
2023-04-26T08:27:34.603Z,10.10
2023-04-26T08:30:03.834Z,4.70
2023-04-26T08:32:36.623Z,8.20
2023-04-26T08:35:04.942Z,6.65
2023-04-26T08:37:32.472Z,10.50
2023-04-26T08:40:00.103Z,10.65
2023-04-26T08:42:28.601Z,9.90
2023-04-26T08:44:56.699Z,10.23
2023-04-26T08:47:40.153Z,6.03
2023-04-26T08:50:09.258Z,12.45
2023-04-26T08:52:37.184Z,10.77
2023-04-26T08:55:09.243Z,6.83
2023-04-26T08:57:37.083Z,6.80
2023-04-26T09:00:05.922Z,6.70
2023-04-26T09:02:34.520Z,6.22
2023-04-26T09:05:03.737Z,7.00
2023-04-26T09:07:33.867Z,6.27
2023-04-26T09:10:01.812Z,7.55
2023-04-26T09:12:29.702Z,8.63
2023-04-26T09:14:57.389Z,9.35
2023-04-26T09:17:30.758Z,7.65
2023-04-26T09:20:07.183Z,8.17
2023-04-26T09:22:37.033Z,9.15
2023-04-26T09:25:05.864Z,8.40
2023-04-26T09:27:41.434Z,9.52
2023-04-26T09:30:15.202Z,9.77
2023-04-26T09:33:06.784Z,7.77
2023-04-26T09:35:42.794Z,6.82
2023-04-26T09:38:14.885Z,7.20
2023-04-26T09:40:47.622Z,8.13
2023-04-26T09:43:19.677Z,7.37
2023-04-26T09:45:50.729Z,7.17
2023-04-26T09:48:26.137Z,7.30
2023-04-26T09:50:55.656Z,7.60
2023-04-26T09:53:29.068Z,9.05
2023-04-26T09:55:58.484Z,5.07
2023-04-26T09:58:26.764Z,9.33
2023-04-26T10:00:55.514Z,5.85
2023-04-26T10:03:24.269Z,6.37
2023-04-26T10:05:52.210Z,8.25
2023-04-26T10:08:19.726Z,6.28
2023-04-26T10:10:48.017Z,9.67
2023-04-26T10:13:16.487Z,7.28
2023-04-26T10:15:43.999Z,6.20
2023-04-26T10:18:12.193Z,5.68
2023-04-26T10:20:42.273Z,4.37
2023-04-26T10:23:17.270Z,6.43
2023-04-26T10:25:45.371Z,6.80
2023-04-26T10:28:16.311Z,10.73
2023-04-26T10:30:59.812Z,4.32
2023-04-26T10:33:28.007Z,7.62
2023-04-26T10:36:14.207Z,5.37
2023-04-26T10:39:05.764Z,7.75
2023-04-26T10:41:36.052Z,6.85
2023-04-26T10:44:42.402Z,9.68
2023-04-26T10:47:31.876Z,6.62
2023-04-26T10:50:07.474Z,6.47
2023-04-26T10:53:03.916Z,6.68
2023-04-26T10:55:38.625Z,5.80
2023-04-26T10:58:26.635Z,7.70
2023-04-26T11:01:13.778Z,5.95
2023-04-26T11:03:42.043Z,7.70
2023-04-26T11:06:13.732Z,4.57
2023-04-26T11:08:41.969Z,6.65
2023-04-26T11:11:13.703Z,6.62
2023-04-26T11:13:42.524Z,4.30
2023-04-26T11:16:14.677Z,6.27
2023-04-26T11:18:46.727Z,7.53
2023-04-26T11:21:18.071Z,7.47
2023-04-26T11:23:55.614Z,5.12
2023-04-26T11:26:24.756Z,5.75
2023-04-26T11:28:52.541Z,6.00
2023-04-26T11:31:20.835Z,5.07
2023-04-26T11:33:50.589Z,6.10
2023-04-26T11:36:19.833Z,3.20
2023-04-26T11:38:47.714Z,7.82
2023-04-26T11:41:15.326Z,4.53
2023-04-26T11:43:43.108Z,3.78
2023-04-26T11:46:11.228Z,4.22
2023-04-26T11:48:40.923Z,4.00
2023-04-26T11:51:09.409Z,4.85
2023-04-26T11:53:42.024Z,5.57
2023-04-26T11:56:22.007Z,7.80
2023-04-26T11:58:51.687Z,5.93
2023-04-26T12:01:26.644Z,4.05
2023-04-26T12:03:59.001Z,4.75
2023-04-26T12:06:33.807Z,4.23
2023-04-26T12:09:05.592Z,10.77
2023-04-26T12:11:33.304Z,4.50
2023-04-26T12:14:01.984Z,4.32
2023-04-26T12:16:29.663Z,3.50
2023-04-26T12:18:57.795Z,7.77
2023-04-26T12:21:28.177Z,4.32
2023-04-26T12:23:57.890Z,7.00
2023-04-26T12:26:44.431Z,4.62
2023-04-26T12:29:12.080Z,4.65
2023-04-26T12:31:40.020Z,3.97
2023-04-26T12:34:08.252Z,4.85
2023-04-26T12:36:35.854Z,4.18
2023-04-26T12:39:05.442Z,4.05
2023-04-26T12:41:33.047Z,6.68
2023-04-26T12:44:01.791Z,6.10
2023-04-26T12:46:29.871Z,8.65
2023-04-26T12:48:57.507Z,6.22
2023-04-26T12:51:25.544Z,4.40
2023-04-26T12:53:53.526Z,4.40
2023-04-26T12:56:21.756Z,5.07
2023-04-26T12:58:49.403Z,9.27
2023-04-26T13:01:17.339Z,4.78
2023-04-26T13:03:45.521Z,5.20
2023-04-26T13:06:13.298Z,5.57
2023-04-26T13:08:41.762Z,6.37
2023-04-26T13:11:09.350Z,5.20
2023-04-26T13:13:43.856Z,9.68
2023-04-26T13:16:13.209Z,5.45
2023-04-26T13:18:41.776Z,7.57
2023-04-26T13:21:09.288Z,5.20
2023-04-26T13:23:37.394Z,7.93
2023-04-26T13:26:05.153Z,7.93
2023-04-26T13:28:32.929Z,6.00
2023-04-26T13:31:00.885Z,4.65
2023-04-26T13:33:28.928Z,7.23
2023-04-26T13:35:56.442Z,3.00
2023-04-26T13:38:24.968Z,3.62
2023-04-26T13:40:53.845Z,5.62
2023-04-26T13:43:21.522Z,6.70
2023-04-26T13:45:49.293Z,5.70
2023-04-26T13:48:17.525Z,5.80
2023-04-26T13:50:45.468Z,8.93
2023-04-26T13:53:13.842Z,4.65
2023-04-26T13:55:41.341Z,5.43
2023-04-26T13:58:09.227Z,3.70
2023-04-26T14:00:37.264Z,3.67
2023-04-26T14:03:05.215Z,4.68
2023-04-26T14:05:32.954Z,3.85
2023-04-26T14:08:00.972Z,5.47
2023-04-26T14:10:28.994Z,7.50
2023-04-26T14:12:56.730Z,3.25
2023-04-26T14:15:24.223Z,4.22
2023-04-26T14:17:52.196Z,4.35
2023-04-26T14:20:19.693Z,5.57
2023-04-26T14:22:48.626Z,3.13
2023-04-26T14:25:16.936Z,5.25
2023-04-26T14:27:44.498Z,6.00
2023-04-26T14:30:14.378Z,6.20
2023-04-26T14:32:44.324Z,5.65
2023-04-26T14:35:11.911Z,2.37
2023-04-26T14:37:39.431Z,4.25
2023-04-26T14:40:11.523Z,4.97
2023-04-26T14:42:46.020Z,5.95
2023-04-26T14:45:14.202Z,3.80
2023-04-26T14:47:41.816Z,3.53
2023-04-26T14:50:10.455Z,4.35
2023-04-26T14:52:38.677Z,2.85
2023-04-26T14:55:07.244Z,6.82
2023-04-26T14:57:34.905Z,7.97
2023-04-26T15:00:07.309Z,6.00
2023-04-26T15:02:35.094Z,5.35
2023-04-26T15:05:03.932Z,6.93
2023-04-26T15:07:32.829Z,4.70
2023-04-26T15:10:01.709Z,11.12
2023-04-26T15:12:29.631Z,7.43
2023-04-26T15:14:57.226Z,3.70
2023-04-26T15:17:24.780Z,3.90
2023-04-26T15:19:57.224Z,5.40
2023-04-26T15:22:24.894Z,5.75
2023-04-26T15:24:52.751Z,6.93
2023-04-26T15:27:20.263Z,3.53
2023-04-26T15:29:48.692Z,4.00
2023-04-26T15:32:16.665Z,6.00
2023-04-26T15:34:45.242Z,3.08
2023-04-26T15:37:12.932Z,5.90
2023-04-26T15:39:40.706Z,6.25
2023-04-26T15:42:08.465Z,6.75
2023-04-26T15:44:36.301Z,6.05
2023-04-26T15:47:04.204Z,5.47
2023-04-26T15:49:31.780Z,4.93
2023-04-26T15:51:59.413Z,4.28
2023-04-26T15:54:27.586Z,8.20
2023-04-26T15:56:55.359Z,7.47
2023-04-26T15:59:23.307Z,4.32
2023-04-26T16:01:51.378Z,10.37
2023-04-26T16:04:19.518Z,6.18
2023-04-26T16:06:47.459Z,5.03
2023-04-26T16:09:25.358Z,3.78
2023-04-26T16:11:53.875Z,3.50
2023-04-26T16:14:21.671Z,3.73
2023-04-26T16:16:49.169Z,7.60
2023-04-26T16:19:17.389Z,9.43
2023-04-26T16:21:45.133Z,4.87
2023-04-26T16:24:12.694Z,7.72
2023-04-26T16:26:41.100Z,4.67
2023-04-26T16:29:08.679Z,4.37
2023-04-26T16:31:42.145Z,3.95
2023-04-26T16:34:10.266Z,5.93
2023-04-26T16:36:37.835Z,5.53
2023-04-26T16:39:06.188Z,5.10
2023-04-26T16:41:34.520Z,3.70
2023-04-26T16:44:02.198Z,4.18
2023-04-26T16:46:29.997Z,6.68
2023-04-26T16:48:57.861Z,4.12
2023-04-26T16:51:25.490Z,4.83
2023-04-26T16:53:53.010Z,4.82
2023-04-26T16:56:20.911Z,4.37
2023-04-26T16:58:48.441Z,5.03
2023-04-26T17:01:16.792Z,3.65
2023-04-26T17:03:46.515Z,4.43
2023-04-26T17:06:14.394Z,8.90
2023-04-26T17:08:42.083Z,3.62
2023-04-26T17:11:09.993Z,4.15
2023-04-26T17:13:37.960Z,6.20
2023-04-26T17:16:05.945Z,5.80
2023-04-26T17:18:33.860Z,4.53
2023-04-26T17:21:01.802Z,4.32
2023-04-26T17:23:30.221Z,5.30
2023-04-26T17:25:58.018Z,5.18
2023-04-26T17:28:25.885Z,4.63
2023-04-26T17:30:53.475Z,6.20
2023-04-26T17:33:21.534Z,5.70
2023-04-26T17:35:49.235Z,3.50
2023-04-26T17:38:16.815Z,3.37
2023-04-26T17:40:44.590Z,5.90
2023-04-26T17:43:12.389Z,5.70
2023-04-26T17:45:42.831Z,3.83
2023-04-26T17:48:13.196Z,3.75
2023-04-26T17:50:41.168Z,6.43
2023-04-26T17:53:08.734Z,4.93
2023-04-26T17:55:36.587Z,4.25
2023-04-26T17:58:04.221Z,4.30
2023-04-26T18:00:31.863Z,3.78
2023-04-26T18:03:02.976Z,4.72
2023-04-26T18:05:31.843Z,5.57
2023-04-26T18:07:59.731Z,4.65
2023-04-26T18:10:27.464Z,4.50
2023-04-26T18:12:55.174Z,5.65
2023-04-26T18:15:23.127Z,3.45
2023-04-26T18:17:51.031Z,3.60
2023-04-26T18:20:18.708Z,4.45
2023-04-26T18:22:46.562Z,4.82
2023-04-26T18:25:14.046Z,4.87
2023-04-26T18:27:41.766Z,4.72
2023-04-26T18:30:10.256Z,8.30
2023-04-26T18:32:38.772Z,6.10
2023-04-26T18:35:07.312Z,6.93
2023-04-26T18:37:35.400Z,5.37
2023-04-26T18:40:04.873Z,9.02
2023-04-26T18:42:32.578Z,8.97
2023-04-26T18:45:02.113Z,7.03
2023-04-26T18:47:30.215Z,5.72
2023-04-26T18:49:58.961Z,5.95
2023-04-26T18:52:26.835Z,6.28
2023-04-26T18:54:54.370Z,6.90
2023-04-26T18:57:22.715Z,5.07
2023-04-26T18:59:50.767Z,7.85
2023-04-26T19:02:18.761Z,5.12
2023-04-26T19:04:49.781Z,5.22
2023-04-26T19:07:18.423Z,5.70
2023-04-26T19:09:54.294Z,8.18
2023-04-26T19:12:22.959Z,5.57
2023-04-26T19:14:50.669Z,4.95
2023-04-26T19:17:18.514Z,4.93
2023-04-26T19:19:46.963Z,8.47
2023-04-26T19:22:14.708Z,4.43
2023-04-26T19:24:42.276Z,6.07
2023-04-26T19:27:10.141Z,4.78
2023-04-26T19:29:37.820Z,6.75
2023-04-26T19:32:07.109Z,9.97
2023-04-26T19:34:38.893Z,6.75
2023-04-26T19:37:07.115Z,7.30
2023-04-26T19:39:35.086Z,7.07
2023-04-26T19:42:03.463Z,6.03
2023-04-26T19:44:31.370Z,6.83
2023-04-26T19:46:59.332Z,6.85
2023-04-26T19:49:29.042Z,6.07
2023-04-26T19:51:56.921Z,7.05
2023-04-26T19:54:24.857Z,10.68
2023-04-26T19:56:52.743Z,7.40
2023-04-26T19:59:20.676Z,10.55
2023-04-26T20:01:49.938Z,9.25
2023-04-26T20:04:18.953Z,8.52
2023-04-26T20:06:46.896Z,7.85
2023-04-26T20:09:14.478Z,7.27
2023-04-26T20:11:42.351Z,8.93
2023-04-26T20:14:09.922Z,12.43
2023-04-26T20:16:37.649Z,8.35
2023-04-26T20:19:06.188Z,9.32
2023-04-26T20:21:33.935Z,7.97
2023-04-26T20:24:01.691Z,6.20
2023-04-26T20:26:29.533Z,9.02
2023-04-26T20:28:57.315Z,9.82
2023-04-26T20:31:25.071Z,9.63
2023-04-26T20:33:53.685Z,10.27
2023-04-26T20:36:21.280Z,8.15
2023-04-26T20:38:48.730Z,9.48
2023-04-26T20:41:16.523Z,6.95
2023-04-26T20:43:44.582Z,7.45
2023-04-26T20:46:12.164Z,9.93
2023-04-26T20:48:40.257Z,7.47
2023-04-26T20:51:07.814Z,6.93
2023-04-26T20:53:35.389Z,8.85
2023-04-26T20:56:03.665Z,10.48
2023-04-26T20:58:31.420Z,7.23
2023-04-26T21:00:59.591Z,8.52
2023-04-26T21:03:27.947Z,7.50
2023-04-26T21:05:55.729Z,4.53
2023-04-26T21:08:23.260Z,7.68
2023-04-26T21:10:51.298Z,7.27
2023-04-26T21:13:18.877Z,4.43
2023-04-26T21:15:47.026Z,7.47
2023-04-26T21:18:14.947Z,3.95
2023-04-26T21:20:42.453Z,5.35
2023-04-26T21:23:10.720Z,7.23
2023-04-26T21:25:38.590Z,5.68
2023-04-26T21:28:06.319Z,7.70
2023-04-26T21:30:34.082Z,4.28
2023-04-26T21:33:02.464Z,3.70
2023-04-26T21:35:30.151Z,5.93
2023-04-26T21:37:57.915Z,4.10
2023-04-26T21:40:26.058Z,6.47
2023-04-26T21:43:04.481Z,4.10
2023-04-26T21:45:33.277Z,4.37
2023-04-26T21:48:01.239Z,4.67
2023-04-26T21:50:29.123Z,5.40
2023-04-26T21:52:57.055Z,7.93
2023-04-26T21:55:24.752Z,4.57
2023-04-26T21:57:52.450Z,5.30
2023-04-26T22:00:20.464Z,8.60
2023-04-26T22:02:48.414Z,3.85
2023-04-26T22:05:15.931Z,5.20
2023-04-26T22:07:43.429Z,7.43
2023-04-26T22:10:11.396Z,5.12
2023-04-26T22:12:39.248Z,5.47
2023-04-26T22:15:07.242Z,3.95
2023-04-26T22:17:35.390Z,4.65
2023-04-26T22:20:04.850Z,7.85
2023-04-26T22:22:32.461Z,3.33
2023-04-26T22:25:00.457Z,4.47
2023-04-26T22:27:28.064Z,5.28
2023-04-26T22:29:56.027Z,4.80
2023-04-26T22:32:24.485Z,3.70
2023-04-26T22:34:51.994Z,3.55
2023-04-26T22:37:21.519Z,4.43
2023-04-26T22:39:49.727Z,4.18
2023-04-26T22:42:17.218Z,3.83
2023-04-26T22:44:44.674Z,5.28
2023-04-26T22:47:12.446Z,3.92
2023-04-26T22:49:39.914Z,7.00
2023-04-26T22:52:14.466Z,6.37
2023-04-26T22:54:45.079Z,5.47
2023-04-26T22:57:12.630Z,5.47
2023-04-26T22:59:40.881Z,5.05
2023-04-26T23:02:09.189Z,3.43
2023-04-26T23:04:36.824Z,7.05
2023-04-26T23:07:04.401Z,5.75
2023-04-26T23:09:33.598Z,5.80
2023-04-26T23:12:02.315Z,8.48
2023-04-26T23:14:30.402Z,8.97
2023-04-26T23:17:01.117Z,4.55
2023-04-26T23:19:28.739Z,4.20
2023-04-26T23:21:56.761Z,4.12
2023-04-26T23:24:24.567Z,5.22
2023-04-26T23:26:52.074Z,4.97
2023-04-26T23:29:19.757Z,5.93
2023-04-26T23:31:47.799Z,3.95
2023-04-26T23:34:15.490Z,5.60
2023-04-26T23:36:43.089Z,4.35
2023-04-26T23:39:11.490Z,5.63
2023-04-26T23:41:39.207Z,3.83
2023-04-26T23:44:07.301Z,5.53
2023-04-26T23:46:35.375Z,7.53
2023-04-26T23:49:03.221Z,5.93
2023-04-26T23:51:32.352Z,4.80
2023-04-26T23:54:00.336Z,5.78
2023-04-26T23:56:27.990Z,7.75
2023-04-26T23:58:56.223Z,6.53
